createdAt,value
2019-02-20T00:04:30.684Z,16.37
2019-02-20T00:09:32.750Z,15.83
2019-02-20T00:14:34.680Z,13.60
2019-02-20T00:19:37.367Z,11.50
2019-02-20T00:24:41.097Z,12.23
2019-02-20T00:29:43.048Z,13.93
2019-02-20T00:34:45.769Z,13.70
2019-02-20T00:39:47.719Z,10.70
2019-02-20T00:45:07.235Z,12.93
2019-02-20T00:50:10.421Z,11.27
2019-02-20T00:55:12.976Z,12.37
2019-02-20T01:00:16.271Z,14.13
2019-02-20T01:05:19.067Z,15.93
2019-02-20T01:10:21.948Z,12.40
2019-02-20T01:15:24.336Z,12.67
2019-02-20T01:20:26.265Z,16.87
2019-02-20T01:25:28.402Z,12.60
2019-02-20T01:30:31.299Z,13.40
2019-02-20T01:35:33.814Z,15.90
2019-02-20T01:40:35.725Z,14.30
2019-02-20T01:45:37.649Z,11.73
2019-02-20T01:50:40.158Z,13.77
2019-02-20T01:55:42.654Z,15.60
2019-02-20T02:00:44.936Z,13.50
2019-02-20T02:05:47.100Z,14.40
2019-02-20T02:10:49.296Z,13.50
2019-02-20T02:15:51.561Z,13.87
2019-02-20T02:20:54.064Z,13.37
2019-02-20T02:25:56.141Z,10.13
2019-02-20T02:30:57.981Z,11.03
2019-02-20T02:35:59.823Z,11.63
2019-02-20T02:41:01.825Z,12.60
2019-02-20T02:46:04.008Z,9.53
2019-02-20T02:51:06.577Z,13.07
2019-02-20T02:56:08.532Z,10.33
2019-02-20T03:01:10.436Z,9.43
2019-02-20T03:06:12.821Z,9.83
2019-02-20T03:11:16.284Z,10.87
2019-02-20T03:16:18.225Z,11.87
2019-02-20T03:21:20.170Z,10.53
2019-02-20T03:26:22.093Z,11.03
2019-02-20T03:31:24.650Z,11.87
2019-02-20T03:36:27.206Z,9.23
2019-02-20T03:41:29.548Z,9.40
2019-02-20T03:46:32.349Z,12.17
2019-02-20T03:51:34.640Z,9.20
2019-02-20T03:56:37.092Z,12.20
2019-02-20T04:01:39.057Z,10.73
2019-02-20T04:06:41.269Z,15.03
2019-02-20T04:11:43.788Z,17.23
2019-02-20T04:16:45.804Z,15.50
2019-02-20T04:21:48.341Z,18.87
2019-02-20T04:26:50.248Z,15.17
2019-02-20T04:31:52.806Z,12.20
2019-02-20T04:36:54.895Z,14.00
2019-02-20T04:41:56.764Z,17.13
2019-02-20T04:46:58.956Z,16.37
2019-02-20T04:52:01.774Z,13.10
2019-02-20T04:57:04.350Z,13.80
2019-02-20T05:02:06.173Z,14.67
2019-02-20T05:07:08.949Z,17.30
2019-02-20T05:12:11.522Z,17.53
2019-02-20T05:17:13.387Z,18.23
2019-02-20T05:22:17.362Z,14.40
2019-02-20T05:27:19.468Z,15.93
2019-02-20T05:32:21.315Z,18.10
2019-02-20T05:37:23.765Z,15.77
2019-02-20T05:42:25.712Z,13.13
2019-02-20T05:47:27.564Z,16.30
2019-02-20T05:52:30.816Z,16.67
2019-02-20T05:57:32.708Z,14.83
2019-02-20T06:02:35.537Z,16.63
2019-02-20T06:07:37.822Z,15.40
2019-02-20T06:12:39.838Z,17.10
2019-02-20T06:17:41.804Z,18.90
2019-02-20T06:22:43.688Z,16.33
2019-02-20T06:27:46.331Z,15.10
2019-02-20T06:32:48.554Z,15.57
2019-02-20T06:37:50.796Z,16.83
2019-02-20T06:42:53.591Z,16.80
2019-02-20T06:47:55.983Z,16.90
2019-02-20T06:52:59.496Z,18.50
2019-02-20T06:58:01.725Z,20.03
2019-02-20T07:03:04.096Z,18.43
2019-02-20T07:08:41.699Z,13.97
2019-02-20T07:13:58.333Z,18.40
2019-02-20T07:19:10.088Z,19.50
2019-02-20T07:24:42.336Z,19.53
2019-02-20T07:30:06.887Z,16.30
2019-02-20T07:35:09.909Z,15.40
2019-02-20T07:40:12.544Z,16.20
2019-02-20T07:45:15.023Z,16.40
2019-02-20T07:50:18.167Z,17.53
2019-02-20T07:55:20.400Z,16.37
2019-02-20T08:00:22.652Z,18.13
2019-02-20T08:05:25.182Z,15.33
2019-02-20T08:10:27.518Z,16.40
2019-02-20T08:15:29.468Z,15.13
2019-02-20T08:20:32.469Z,13.23
2019-02-20T08:25:34.435Z,16.97
2019-02-20T08:30:36.968Z,17.07
2019-02-20T08:35:38.974Z,14.60
2019-02-20T08:40:40.981Z,20.37
2019-02-20T08:45:43.299Z,19.20
2019-02-20T08:50:45.283Z,17.03
2019-02-20T08:55:47.233Z,15.50
2019-02-20T09:00:50.031Z,20.93
2019-02-20T09:05:53.331Z,17.60
2019-02-20T09:10:55.740Z,15.73
2019-02-20T09:15:58.439Z,16.53
2019-02-20T09:21:00.704Z,18.77
2019-02-20T09:26:03.128Z,17.70
2019-02-20T09:31:05.131Z,18.97
2019-02-20T09:36:08.034Z,13.70
2019-02-20T09:41:10.009Z,14.87
2019-02-20T09:46:12.007Z,19.73
2019-02-20T09:51:13.946Z,17.50
2019-02-20T09:56:16.311Z,18.87
2019-02-20T10:01:18.284Z,22.50
2019-02-20T10:06:20.588Z,21.50
2019-02-20T10:11:22.517Z,17.57
2019-02-20T10:16:25.117Z,19.67
2019-02-20T10:21:27.231Z,20.07
2019-02-20T10:26:29.627Z,16.33
2019-02-20T10:31:31.549Z,17.03
2019-02-20T10:36:35.623Z,19.03
2019-02-20T10:41:37.605Z,19.50
2019-02-20T10:46:40.665Z,18.77
2019-02-20T10:51:42.961Z,22.80
2019-02-20T10:56:45.113Z,21.63
2019-02-20T11:01:47.446Z,19.47
2019-02-20T11:06:49.748Z,17.63
2019-02-20T11:11:54.406Z,23.03
2019-02-20T11:16:56.375Z,23.13
2019-02-20T11:21:58.277Z,21.93
2019-02-20T11:27:00.129Z,22.70
2019-02-20T11:32:02.139Z,19.63
2019-02-20T11:37:04.310Z,20.63
2019-02-20T11:42:06.290Z,20.97
2019-02-20T11:47:08.902Z,18.60
2019-02-20T11:52:11.883Z,18.37
2019-02-20T11:57:14.022Z,20.83
2019-02-20T12:02:17.907Z,20.27
2019-02-20T12:07:19.989Z,18.83
2019-02-20T12:12:23.470Z,19.43
2019-02-20T12:17:28.336Z,18.27
2019-02-20T12:22:30.406Z,17.43
2019-02-20T12:27:33.195Z,23.97
2019-02-20T12:32:35.305Z,20.13
2019-02-20T12:37:38.511Z,19.20
2019-02-20T12:42:41.982Z,19.93
2019-02-20T12:47:44.210Z,23.87
2019-02-20T12:52:46.064Z,19.33
2019-02-20T12:57:48.286Z,18.47
2019-02-20T13:02:50.548Z,18.70
2019-02-20T13:07:52.599Z,16.50
2019-02-20T13:12:54.944Z,17.33
2019-02-20T13:17:57.241Z,18.93
2019-02-20T13:23:00.127Z,21.07
2019-02-20T13:28:02.953Z,21.00
2019-02-20T13:33:05.722Z,20.67
2019-02-20T13:38:07.881Z,21.03
2019-02-20T13:43:09.914Z,29.43
2019-02-20T13:48:11.868Z,21.57
2019-02-20T13:53:14.409Z,18.47
2019-02-20T13:58:18.086Z,19.07
2019-02-20T14:03:20.982Z,24.73
2019-02-20T14:08:22.993Z,22.77
2019-02-20T14:13:24.956Z,17.67
2019-02-20T14:18:27.133Z,19.13
2019-02-20T14:23:29.792Z,16.07
2019-02-20T14:28:32.312Z,19.00
2019-02-20T14:33:34.893Z,17.93
2019-02-20T14:38:37.887Z,17.43
2019-02-20T14:43:40.215Z,18.80
2019-02-20T14:48:42.160Z,18.23
2019-02-20T14:53:44.092Z,18.53
2019-02-20T14:58:46.345Z,15.00
2019-02-20T15:03:48.920Z,14.57
2019-02-20T15:08:51.167Z,17.90
2019-02-20T15:13:55.459Z,10.73
2019-02-20T15:18:58.336Z,16.20
2019-02-20T15:24:00.610Z,15.97
2019-02-20T15:29:02.692Z,13.70
2019-02-20T15:34:05.009Z,24.87
2019-02-20T15:39:07.525Z,21.73
2019-02-20T15:44:11.288Z,15.87
2019-02-20T15:49:13.643Z,17.57
2019-02-20T15:54:30.100Z,16.93
2019-02-20T15:59:32.112Z,17.47
2019-02-20T16:04:35.536Z,20.13
2019-02-20T16:09:37.625Z,15.83
2019-02-20T16:14:42.090Z,16.47
2019-02-20T16:19:44.255Z,16.90
2019-02-20T16:24:46.293Z,16.83
2019-02-20T16:29:48.328Z,23.50
2019-02-20T16:34:50.329Z,18.40
2019-02-20T16:39:52.559Z,20.57
2019-02-20T16:44:54.824Z,20.70
2019-02-20T16:49:56.629Z,19.13
2019-02-20T16:54:58.587Z,21.50
2019-02-20T17:00:00.491Z,21.17
2019-02-20T17:05:02.953Z,20.50
2019-02-20T17:10:07.468Z,28.10
2019-02-20T17:15:10.077Z,23.03
2019-02-20T17:20:12.767Z,27.40
2019-02-20T17:25:15.944Z,26.77
2019-02-20T17:30:18.167Z,28.20
2019-02-20T17:35:20.819Z,18.50
2019-02-20T17:40:23.325Z,20.60
2019-02-20T17:45:25.493Z,25.87
2019-02-20T17:50:27.727Z,22.47
2019-02-20T17:55:30.235Z,24.20
2019-02-20T18:00:32.864Z,20.10
2019-02-20T18:05:34.848Z,25.23
2019-02-20T18:10:36.856Z,20.63
2019-02-20T18:15:40.327Z,21.67
2019-02-20T18:20:43.463Z,27.07
2019-02-20T18:25:45.492Z,23.93
2019-02-20T18:30:48.100Z,19.00
2019-02-20T18:35:50.822Z,19.23
2019-02-20T18:40:52.690Z,22.70
2019-02-20T18:45:54.656Z,25.27
2019-02-20T18:50:56.816Z,21.13
2019-02-20T18:55:59.798Z,24.10
2019-02-20T19:01:02.266Z,20.80
2019-02-20T19:06:05.348Z,22.50
2019-02-20T19:11:12.600Z,26.23
2019-02-20T19:16:57.003Z,23.37
2019-02-20T19:22:30.864Z,23.60
2019-02-20T19:27:48.129Z,23.93
2019-02-20T19:33:12.463Z,19.50
2019-02-20T19:38:55.353Z,25.27
2019-02-20T19:44:22.440Z,18.07
2019-02-20T19:49:50.926Z,18.73
2019-02-20T19:55:22.421Z,22.07
2019-02-20T20:00:48.270Z,16.47
2019-02-20T20:06:13.209Z,17.17
2019-02-20T20:11:52.076Z,22.60
2019-02-20T20:17:32.285Z,24.70
2019-02-20T20:23:06.265Z,20.10
2019-02-20T20:28:54.061Z,19.60
2019-02-20T20:34:34.101Z,18.63
2019-02-20T20:40:05.459Z,20.02
2019-02-20T20:46:05.243Z,19.37
2019-02-20T20:51:38.073Z,18.30
2019-02-20T20:56:57.945Z,20.57
2019-02-20T21:02:16.118Z,17.47
2019-02-20T21:07:30.857Z,20.07
2019-02-20T21:13:18.867Z,19.83
2019-02-20T21:18:44.907Z,18.93
2019-02-20T21:24:30.649Z,22.63
2019-02-20T21:29:47.524Z,16.03
2019-02-20T21:35:05.372Z,18.10
2019-02-20T21:40:49.505Z,18.33
2019-02-20T21:46:17.767Z,20.07
2019-02-20T21:51:45.757Z,13.67
2019-02-20T21:57:19.591Z,19.67
2019-02-20T22:02:51.565Z,16.80
2019-02-20T22:08:25.316Z,21.60
2019-02-20T22:14:07.400Z,19.50
2019-02-20T22:19:39.818Z,16.93
2019-02-20T22:25:08.074Z,16.87
2019-02-20T22:30:34.652Z,14.43
2019-02-20T22:35:55.157Z,16.07
2019-02-20T22:41:19.648Z,19.97
2019-02-20T22:46:38.709Z,17.87
2019-02-20T22:52:12.826Z,17.60
2019-02-20T22:57:46.302Z,13.43
2019-02-20T23:03:19.980Z,16.43
2019-02-20T23:08:37.672Z,16.70
2019-02-20T23:14:12.280Z,18.90
2019-02-20T23:19:14.441Z,17.17
2019-02-20T23:24:16.605Z,19.47
2019-02-20T23:29:19.196Z,18.80
2019-02-20T23:34:22.680Z,19.70
2019-02-20T23:39:24.869Z,17.53
2019-02-20T23:44:27.377Z,21.47
2019-02-20T23:49:29.204Z,21.47
2019-02-20T23:54:31.661Z,20.00
2019-02-20T23:59:33.769Z,18.33
